Tularosa, New Mexico
Current Conditions -  °F | °C
As of 12:58 AM on Thursday 27 Nov 2014 (Local Time) from KHMN Reporting Station
Clear Clear  
Wind Chill: 36°   Ceiling: Unl
Heat Index: 36°   Visibility: 10mi
Dew Point: 19°   Wind: 0mph
Humidity: 49%   Direction: NA
Pressure: 30.35"   Gusts: NA
Location:  33.07°N, 106.02°W
Report Text: KHMN 270758Z AUTO 00000KT 10SM CLR 02/M07 A3035 RMK AO2 SLP249 T00241074 $
Loading
Personal Weather Stations






























Interactive Weather Map New forecast layout! Learn more

10-Day Weather Forecast

Advertisements
Track Severe Weather on mobile